createdAt,value
2022-11-27T00:02:44.477Z,0.50
2022-11-27T00:06:28.316Z,0.20
2022-11-27T00:10:10.375Z,0.30
2022-11-27T00:13:52.728Z,3.57
2022-11-27T00:17:34.470Z,0.50
2022-11-27T00:21:22.412Z,0.33
2022-11-27T00:25:04.667Z,0.20
2022-11-27T00:28:46.559Z,0.20
2022-11-27T00:32:28.403Z,0.93
2022-11-27T00:36:11.191Z,0.20
2022-11-27T00:39:52.912Z,1.67
2022-11-27T00:43:43.707Z,0.50
2022-11-27T00:47:26.580Z,0.77
2022-11-27T00:51:10.626Z,0.87
2022-11-27T00:54:52.338Z,0.40
2022-11-27T00:58:34.697Z,1.73
2022-11-27T01:02:16.479Z,0.50
2022-11-27T01:06:03.356Z,22.70
2022-11-27T01:09:45.293Z,2.40
2022-11-27T01:13:29.904Z,3.20
2022-11-27T01:17:11.707Z,0.93
2022-11-27T01:20:53.742Z,0.50
2022-11-27T01:24:35.733Z,0.60
2022-11-27T01:28:17.592Z,0.53
2022-11-27T01:31:59.354Z,0.43
2022-11-27T01:35:41.121Z,0.70
2022-11-27T01:39:24.502Z,1.37
2022-11-27T01:43:11.077Z,1.50
2022-11-27T01:47:01.799Z,0.80
2022-11-27T01:50:43.540Z,0.77
2022-11-27T01:54:36.138Z,0.97
2022-11-27T01:58:23.736Z,0.73
2022-11-27T02:02:05.679Z,0.70
2022-11-27T02:05:47.403Z,0.80
2022-11-27T02:09:29.822Z,0.90
2022-11-27T02:13:32.324Z,0.70
2022-11-27T02:17:23.039Z,1.00
2022-11-27T02:21:26.582Z,0.80
2022-11-27T02:25:13.923Z,0.90
2022-11-27T02:29:06.370Z,0.87
2022-11-27T02:33:03.103Z,0.80
2022-11-27T02:36:53.231Z,0.77
2022-11-27T02:40:44.506Z,0.80
2022-11-27T02:44:31.654Z,0.97
2022-11-27T02:48:16.977Z,0.83
2022-11-27T02:52:00.733Z,1.03
2022-11-27T02:55:43.303Z,1.23
2022-11-27T02:59:28.040Z,1.30
2022-11-27T03:03:14.056Z,0.93
2022-11-27T03:06:59.408Z,1.07
2022-11-27T03:10:50.284Z,1.30
2022-11-27T03:18:42.792Z,1.20
2022-11-27T03:22:26.762Z,1.23
2022-11-27T03:26:08.652Z,1.20
2022-11-27T03:29:54.707Z,1.20
2022-11-27T03:33:36.577Z,1.10
2022-11-27T03:37:18.333Z,1.67
2022-11-27T03:41:11.236Z,1.33
2022-11-27T03:45:13.805Z,1.40
2022-11-27T03:49:33.660Z,1.60
2022-11-27T03:53:52.847Z,1.17
2022-11-27T03:57:47.848Z,1.67
2022-11-27T04:01:31.234Z,1.77
2022-11-27T04:05:13.931Z,1.70
2022-11-27T04:08:55.675Z,1.63
2022-11-27T04:12:37.468Z,1.90
2022-11-27T04:16:19.677Z,1.83
2022-11-27T04:20:01.684Z,1.53
2022-11-27T04:23:44.085Z,1.63
2022-11-27T04:27:25.796Z,2.73
2022-11-27T04:31:07.642Z,1.20
2022-11-27T04:34:49.367Z,1.27
2022-11-27T04:38:31.056Z,1.20
2022-11-27T04:42:12.770Z,1.50
2022-11-27T04:45:54.492Z,1.30
2022-11-27T04:49:36.299Z,1.70
2022-11-27T04:53:18.082Z,1.50
2022-11-27T04:56:59.887Z,1.23
2022-11-27T05:00:41.714Z,1.10
2022-11-27T05:04:28.941Z,1.43
2022-11-27T05:08:10.688Z,1.63
2022-11-27T05:11:52.514Z,1.60
2022-11-27T05:15:36.573Z,2.00
2022-11-27T05:19:20.340Z,2.03
2022-11-27T05:23:02.306Z,2.20
2022-11-27T05:26:44.284Z,1.60
2022-11-27T05:30:25.982Z,1.80
2022-11-27T05:34:08.314Z,1.73
2022-11-27T05:37:50.015Z,2.47
2022-11-27T05:41:31.712Z,1.63
2022-11-27T05:45:13.406Z,2.00
2022-11-27T05:48:55.179Z,2.37
2022-11-27T05:52:36.859Z,2.03
2022-11-27T05:56:19.216Z,2.10
2022-11-27T06:00:01.184Z,3.20
2022-11-27T06:03:42.996Z,2.40
2022-11-27T06:07:25.125Z,2.50
2022-11-27T06:11:08.638Z,3.50
2022-11-27T06:14:50.408Z,2.80
2022-11-27T06:18:32.278Z,2.80
2022-11-27T06:22:14.056Z,2.90
2022-11-27T06:25:55.748Z,3.40
2022-11-27T06:29:38.132Z,3.50
2022-11-27T06:33:20.060Z,3.13
2022-11-27T06:37:01.851Z,3.67
2022-11-27T06:40:43.579Z,2.97
2022-11-27T06:44:26.789Z,2.63
2022-11-27T06:48:08.515Z,5.10
2022-11-27T06:51:50.794Z,3.37
2022-11-27T06:55:32.485Z,3.97
2022-11-27T06:59:17.284Z,3.67
2022-11-27T07:02:59.170Z,3.80
2022-11-27T07:06:42.081Z,4.17
2022-11-27T07:10:23.796Z,4.13
2022-11-27T07:14:06.757Z,4.20
2022-11-27T07:17:48.463Z,3.93
2022-11-27T07:21:30.440Z,3.43
2022-11-27T07:25:12.180Z,3.50
2022-11-27T07:28:54.536Z,3.80
2022-11-27T07:32:36.285Z,3.80
2022-11-27T07:36:24.336Z,3.20
2022-11-27T07:40:07.001Z,3.93
2022-11-27T07:43:49.048Z,3.27
2022-11-27T07:47:30.906Z,3.30
2022-11-27T07:51:15.255Z,3.57
2022-11-27T07:54:56.987Z,3.63
2022-11-27T07:58:38.979Z,3.70
2022-11-27T08:02:20.694Z,3.47
2022-11-27T08:06:02.529Z,3.17
2022-11-27T08:09:44.259Z,3.40
2022-11-27T08:13:25.963Z,3.10
2022-11-27T08:17:08.166Z,3.10
2022-11-27T08:20:49.860Z,3.40
2022-11-27T08:24:31.740Z,4.57
2022-11-27T08:28:13.415Z,3.03
2022-11-27T08:31:55.335Z,3.57
2022-11-27T08:35:37.172Z,3.97
2022-11-27T08:39:19.752Z,3.60
2022-11-27T08:43:01.438Z,4.07
2022-11-27T08:46:43.919Z,3.63
2022-11-27T08:50:25.827Z,3.80
2022-11-27T08:54:07.613Z,3.90
2022-11-27T08:57:49.385Z,3.40
2022-11-27T09:01:32.499Z,4.20
2022-11-27T09:05:14.323Z,3.87
2022-11-27T09:09:00.860Z,4.17
2022-11-27T09:12:44.507Z,3.77
2022-11-27T09:16:27.952Z,4.00
2022-11-27T09:20:10.608Z,5.27
2022-11-27T09:23:54.268Z,3.93
2022-11-27T09:27:37.344Z,3.93
2022-11-27T09:31:19.659Z,4.13
2022-11-27T09:35:01.516Z,9.67
2022-11-27T09:38:44.090Z,5.47
2022-11-27T09:42:40.488Z,4.77
2022-11-27T09:46:31.841Z,4.63
2022-11-27T09:50:16.936Z,3.60
2022-11-27T09:54:08.019Z,3.77
2022-11-27T09:58:02.232Z,4.43
2022-11-27T10:01:49.346Z,3.60
2022-11-27T10:06:01.994Z,4.33
2022-11-27T10:09:55.748Z,4.63
2022-11-27T10:13:40.254Z,5.13
2022-11-27T10:17:35.667Z,4.30
2022-11-27T10:21:20.552Z,4.10
2022-11-27T10:25:18.329Z,4.60
2022-11-27T10:29:18.468Z,4.03
2022-11-27T10:33:03.040Z,4.72
2022-11-27T10:36:49.998Z,4.90
2022-11-27T10:41:04.276Z,6.03
2022-11-27T10:44:59.813Z,4.13
2022-11-27T10:48:41.614Z,4.43
2022-11-27T10:52:23.758Z,4.97
2022-11-27T10:56:15.565Z,5.37
2022-11-27T11:00:23.743Z,4.63
2022-11-27T11:04:31.396Z,4.97
2022-11-27T11:08:18.828Z,5.33
2022-11-27T11:12:29.797Z,5.10
2022-11-27T11:19:57.017Z,4.73
2022-11-27T11:23:40.875Z,5.00
2022-11-27T11:27:32.210Z,5.40
2022-11-27T11:31:17.720Z,5.50
2022-11-27T11:35:09.621Z,5.10
2022-11-27T11:38:52.304Z,5.27
2022-11-27T11:42:36.491Z,6.23
2022-11-27T11:46:23.080Z,6.17
2022-11-27T11:50:05.492Z,5.07
2022-11-27T11:53:59.293Z,5.17
2022-11-27T11:58:18.040Z,5.57
2022-11-27T12:02:25.059Z,5.97
2022-11-27T12:06:23.896Z,4.77
2022-11-27T12:10:05.851Z,6.37
2022-11-27T12:14:11.422Z,4.57
2022-11-27T12:18:17.218Z,5.27
2022-11-27T12:22:12.701Z,4.13
2022-11-27T12:26:00.196Z,5.47
2022-11-27T12:29:51.940Z,4.57
2022-11-27T12:33:36.864Z,4.67
2022-11-27T12:37:37.413Z,5.37
2022-11-27T12:41:25.219Z,4.32
2022-11-27T12:45:20.561Z,5.73
2022-11-27T12:49:28.965Z,5.27
2022-11-27T12:53:24.689Z,4.77
2022-11-27T12:57:15.146Z,6.20
2022-11-27T13:01:03.335Z,5.88
2022-11-27T13:04:51.813Z,5.77
2022-11-27T13:09:02.024Z,4.70
2022-11-27T13:12:49.216Z,5.85
2022-11-27T13:16:40.893Z,5.27
2022-11-27T13:20:32.418Z,4.63
2022-11-27T13:24:14.691Z,5.20
2022-11-27T13:27:57.978Z,4.67
2022-11-27T13:31:42.357Z,5.27
2022-11-27T13:35:39.980Z,5.13
2022-11-27T13:39:25.320Z,6.03
2022-11-27T13:43:39.638Z,4.90
2022-11-27T13:47:24.576Z,5.23
2022-11-27T13:51:08.383Z,5.63
2022-11-27T13:54:58.347Z,5.37
2022-11-27T13:58:43.069Z,7.57
2022-11-27T14:02:26.101Z,8.03
2022-11-27T14:06:30.749Z,5.23
2022-11-27T14:10:17.542Z,6.07
2022-11-27T14:14:01.600Z,5.70
2022-11-27T14:17:45.448Z,4.67
2022-11-27T14:21:40.337Z,5.40
2022-11-27T14:25:27.074Z,5.40
2022-11-27T14:29:12.059Z,4.13
2022-11-27T14:32:53.873Z,5.67
2022-11-27T14:36:36.018Z,5.80
2022-11-27T14:40:28.068Z,8.00
2022-11-27T14:44:15.120Z,5.60
2022-11-27T14:47:57.205Z,5.43
2022-11-27T14:51:40.495Z,4.53
2022-11-27T14:55:23.332Z,4.43
2022-11-27T14:59:06.651Z,5.03
2022-11-27T15:02:50.247Z,5.37
2022-11-27T15:06:36.469Z,5.23
2022-11-27T15:10:32.298Z,5.43
2022-11-27T15:14:16.810Z,5.40
2022-11-27T15:18:02.639Z,5.67
2022-11-27T15:21:49.589Z,6.43
2022-11-27T15:25:40.687Z,5.20
2022-11-27T15:29:36.770Z,5.00
2022-11-27T15:33:33.383Z,5.77
2022-11-27T15:37:31.780Z,6.23
2022-11-27T15:41:32.654Z,6.97
2022-11-27T15:45:14.428Z,8.65
2022-11-27T15:48:56.673Z,6.67
2022-11-27T15:52:38.452Z,7.20
2022-11-27T15:56:20.801Z,7.60
2022-11-27T16:00:04.025Z,7.73
2022-11-27T16:03:45.811Z,9.60
2022-11-27T16:07:27.553Z,7.77
2022-11-27T16:11:14.699Z,8.23
2022-11-27T16:14:56.393Z,7.17
2022-11-27T16:18:38.446Z,8.47
2022-11-27T16:22:20.266Z,5.53
2022-11-27T16:26:02.427Z,5.87
2022-11-27T16:29:44.772Z,6.10
2022-11-27T16:33:27.580Z,7.00
2022-11-27T16:37:10.511Z,6.87
2022-11-27T16:41:01.209Z,6.23
2022-11-27T16:44:44.291Z,5.40
2022-11-27T16:48:26.022Z,5.50
2022-11-27T16:52:09.904Z,9.37
2022-11-27T16:55:52.079Z,8.77
2022-11-27T16:59:37.841Z,6.70
2022-11-27T17:03:19.788Z,5.77
2022-11-27T17:07:01.451Z,9.77
2022-11-27T17:10:53.808Z,5.77
2022-11-27T17:14:36.937Z,6.03
2022-11-27T17:18:18.710Z,7.63
2022-11-27T17:22:03.471Z,7.03
2022-11-27T17:25:45.167Z,7.10
2022-11-27T17:29:26.932Z,7.47
2022-11-27T17:33:08.616Z,8.20
2022-11-27T17:36:53.645Z,8.37
2022-11-27T17:40:35.473Z,7.37
2022-11-27T17:44:17.192Z,7.23
2022-11-27T17:48:00.208Z,6.93
2022-11-27T17:51:41.977Z,7.17
2022-11-27T17:55:23.678Z,6.20
2022-11-27T17:59:05.455Z,6.57
2022-11-27T18:02:47.198Z,7.17
2022-11-27T18:06:29.103Z,6.73
2022-11-27T18:10:11.348Z,6.70
2022-11-27T18:13:53.696Z,7.20
2022-11-27T18:17:36.340Z,9.90
2022-11-27T18:21:20.193Z,6.73
2022-11-27T18:25:02.005Z,5.97
2022-11-27T18:28:44.418Z,6.00
2022-11-27T18:32:26.580Z,6.33
2022-11-27T18:36:09.736Z,7.30
2022-11-27T18:39:51.594Z,7.57
2022-11-27T18:43:33.847Z,7.07
2022-11-27T18:47:19.361Z,6.53
2022-11-27T18:51:22.461Z,7.33
2022-11-27T18:55:06.250Z,7.10
2022-11-27T18:58:49.156Z,6.27
2022-11-27T19:02:31.013Z,6.37
2022-11-27T19:06:14.789Z,6.90
2022-11-27T19:09:56.721Z,7.30
2022-11-27T19:13:39.643Z,6.80
2022-11-27T19:17:24.719Z,7.50
2022-11-27T19:21:21.035Z,7.20
2022-11-27T19:25:02.975Z,6.60
2022-11-27T19:28:47.958Z,7.77
2022-11-27T19:32:29.801Z,7.80
2022-11-27T19:36:13.780Z,10.27
2022-11-27T19:39:55.657Z,11.00
2022-11-27T19:43:37.607Z,8.83
2022-11-27T19:47:20.039Z,7.17
2022-11-27T19:51:02.379Z,8.00
2022-11-27T19:54:45.458Z,7.43
2022-11-27T19:58:27.433Z,6.73
2022-11-27T20:02:14.376Z,6.50
2022-11-27T20:06:19.747Z,6.47
2022-11-27T20:10:01.997Z,6.50
2022-11-27T20:13:45.038Z,6.07
2022-11-27T20:17:27.154Z,6.53
2022-11-27T20:21:17.479Z,7.10
2022-11-27T20:25:18.333Z,6.90
2022-11-27T20:29:01.377Z,8.47
2022-11-27T20:32:43.189Z,7.70
2022-11-27T20:36:25.504Z,5.40
2022-11-27T20:40:07.997Z,5.63
2022-11-27T20:43:53.782Z,4.90
2022-11-27T20:47:36.050Z,5.47
2022-11-27T20:51:20.633Z,4.83
2022-11-27T20:55:02.593Z,6.10
2022-11-27T20:58:45.460Z,5.83
2022-11-27T21:02:27.282Z,5.27
2022-11-27T21:06:09.225Z,5.47
2022-11-27T21:09:51.026Z,6.40
2022-11-27T21:13:32.801Z,4.80
2022-11-27T21:17:14.742Z,6.07
2022-11-27T21:20:56.529Z,5.40
2022-11-27T21:24:38.285Z,5.37
2022-11-27T21:28:19.975Z,4.17
2022-11-27T21:32:01.940Z,4.77
2022-11-27T21:35:43.817Z,5.13
2022-11-27T21:39:25.851Z,5.83
2022-11-27T21:43:07.705Z,5.13
2022-11-27T21:46:50.512Z,5.00
2022-11-27T21:50:32.401Z,16.73
2022-11-27T21:54:15.397Z,8.07
2022-11-27T21:57:57.233Z,5.47
2022-11-27T22:01:39.288Z,4.57
2022-11-27T22:05:21.154Z,5.53
2022-11-27T22:09:04.332Z,5.60
2022-11-27T22:12:46.037Z,4.70
2022-11-27T22:16:30.821Z,4.07
2022-11-27T22:20:13.520Z,4.40
2022-11-27T22:23:55.902Z,3.77
2022-11-27T22:27:37.680Z,3.70
2022-11-27T22:31:22.951Z,3.90
2022-11-27T22:35:05.053Z,4.27
2022-11-27T22:38:48.668Z,5.50
2022-11-27T22:42:30.389Z,4.30
2022-11-27T22:46:15.312Z,4.60
2022-11-27T22:49:57.095Z,4.17
2022-11-27T22:53:39.551Z,4.70
2022-11-27T22:57:21.771Z,4.67
2022-11-27T23:01:04.152Z,3.80
2022-11-27T23:04:46.007Z,5.37
2022-11-27T23:08:27.953Z,5.00
2022-11-27T23:12:09.905Z,4.27
2022-11-27T23:15:51.671Z,4.57
2022-11-27T23:19:33.459Z,4.37
2022-11-27T23:23:15.161Z,3.67
2022-11-27T23:26:56.862Z,4.23
2022-11-27T23:30:38.915Z,4.40
2022-11-27T23:34:20.637Z,3.87
2022-11-27T23:38:02.349Z,4.40
2022-11-27T23:41:44.240Z,4.20
2022-11-27T23:45:26.082Z,4.03
2022-11-27T23:49:07.852Z,4.17
2022-11-27T23:52:49.567Z,4.50
2022-11-27T23:56:32.501Z,3.50
